createdAt,value
2023-03-11T00:00:28.697Z,95083.19
2023-03-11T00:01:30.229Z,95083.19
2023-03-11T00:02:31.824Z,95087.38
2023-03-11T00:03:33.459Z,95080.88
2023-03-11T00:04:34.978Z,95078.91
2023-03-11T00:05:38.984Z,95078.50
2023-03-11T00:06:40.634Z,95073.09
2023-03-11T00:07:42.240Z,95080.78
2023-03-11T00:08:43.840Z,95087.69
2023-03-11T00:09:45.431Z,95090.72
2023-03-11T00:10:48.738Z,95087.63
2023-03-11T00:11:50.290Z,95086.84
2023-03-11T00:12:52.032Z,95088.38
2023-03-11T00:13:53.564Z,95083.41
2023-03-11T00:14:55.151Z,95078.44
2023-03-11T00:15:57.338Z,95077.31
2023-03-11T00:16:58.941Z,95072.72
2023-03-11T00:18:00.802Z,95073.88
2023-03-11T00:19:02.389Z,95073.09
2023-03-11T00:20:07.001Z,95067.78
2023-03-11T00:21:16.216Z,95064.31
2023-03-11T00:22:17.844Z,95062.44
2023-03-11T00:23:19.459Z,95064.75
2023-03-11T00:24:21.189Z,95062.78
2023-03-11T00:25:24.793Z,95069.31
2023-03-11T00:26:26.436Z,95067.00
2023-03-11T00:27:28.002Z,95063.59
2023-03-11T00:28:29.638Z,95062.09
2023-03-11T00:29:31.252Z,95064.78
2023-03-11T00:30:33.559Z,95062.50
2023-03-11T00:31:35.164Z,95073.22
2023-03-11T00:32:36.892Z,95070.16
2023-03-11T00:33:39.208Z,95067.88
2023-03-11T00:34:40.702Z,95071.72
2023-03-11T00:35:43.270Z,95077.84
2023-03-11T00:36:44.887Z,95074.41
2023-03-11T00:37:47.989Z,95079.03
2023-03-11T00:38:49.801Z,95077.13
2023-03-11T00:39:51.443Z,95075.59
2023-03-11T00:40:53.011Z,95088.66
2023-03-11T00:41:56.531Z,95090.94
2023-03-11T00:42:58.912Z,95087.88
2023-03-11T00:44:00.932Z,95089.44
2023-03-11T00:45:02.485Z,95092.47
2023-03-11T00:46:05.038Z,95090.94
2023-03-11T00:47:06.805Z,95087.13
2023-03-11T00:48:09.213Z,95084.41
2023-03-11T00:49:11.338Z,95091.31
2023-03-11T00:50:21.733Z,95085.16
2023-03-11T00:51:23.332Z,95085.16
2023-03-11T00:52:24.891Z,95084.03
2023-03-11T00:53:26.487Z,95079.41
2023-03-11T00:54:28.276Z,95080.94
2023-03-11T00:55:32.347Z,95074.81
2023-03-11T00:56:33.953Z,95086.31
2023-03-11T00:57:35.462Z,95081.69
2023-03-11T00:58:37.229Z,95067.13
2023-03-11T00:59:38.749Z,95068.66
2023-03-11T01:00:40.533Z,95064.84
2023-03-11T01:01:42.165Z,95057.94
2023-03-11T01:02:44.539Z,95061.00
2023-03-11T01:03:46.820Z,95061.75
2023-03-11T01:04:48.442Z,95065.59
2023-03-11T01:05:50.018Z,95072.50
2023-03-11T01:06:51.619Z,95068.63
2023-03-11T01:07:53.186Z,95067.88
2023-03-11T01:08:54.740Z,95067.88
2023-03-11T01:09:56.357Z,95067.09
2023-03-11T01:10:58.846Z,95057.09
2023-03-11T01:12:00.414Z,95056.31
2023-03-11T01:13:02.848Z,95056.69
2023-03-11T01:14:04.413Z,95054.78
2023-03-11T01:15:07.753Z,95044.06
2023-03-11T01:16:09.467Z,95044.78
2023-03-11T01:17:11.124Z,95043.25
2023-03-11T01:18:14.095Z,95026.41
2023-03-11T01:19:15.926Z,95032.16
2023-03-11T01:20:17.834Z,95033.28
2023-03-11T01:21:19.430Z,95034.84
2023-03-11T01:22:20.970Z,95022.19
2023-03-11T01:23:22.848Z,95027.16
2023-03-11T01:24:24.413Z,95021.78
2023-03-11T01:25:26.219Z,95026.38
2023-03-11T01:26:27.850Z,95024.47
2023-03-11T01:27:29.496Z,95024.47
2023-03-11T01:28:31.039Z,95015.66
2023-03-11T01:29:32.599Z,95012.59
2023-03-11T01:30:39.778Z,95015.66
2023-03-11T01:31:41.349Z,95013.34
2023-03-11T01:32:43.609Z,95004.16
2023-03-11T01:33:45.154Z,95008.75
2023-03-11T01:34:46.762Z,95002.66
2023-03-11T01:35:49.347Z,95001.88
2023-03-11T01:36:51.092Z,94991.16
2023-03-11T01:37:53.528Z,94990.41
2023-03-11T01:38:55.092Z,94987.34
2023-03-11T01:39:56.692Z,94989.25
2023-03-11T01:40:58.267Z,94995.75
2023-03-11T01:41:59.818Z,94992.72
2023-03-11T01:43:02.590Z,95001.88
2023-03-11T01:44:05.190Z,94998.47
2023-03-11T01:45:32.969Z,95000.00
2023-03-11T01:46:59.993Z,94997.34
2023-03-11T01:48:02.665Z,94996.59
2023-03-11T01:49:05.634Z,94984.72
2023-03-11T01:50:12.669Z,94980.47
2023-03-11T01:51:17.479Z,94977.41
2023-03-11T01:52:19.664Z,94977.41
2023-03-11T01:53:22.422Z,94981.25
2023-03-11T01:54:30.978Z,94985.09
2023-03-11T01:55:33.004Z,94984.72
2023-03-11T01:56:35.507Z,94980.91
2023-03-11T01:57:39.068Z,94975.91
2023-03-11T01:58:45.047Z,94980.13
2023-03-11T01:59:53.246Z,94975.16
2023-03-11T02:00:56.621Z,94975.16
2023-03-11T02:02:14.498Z,94973.63
2023-03-11T02:03:21.920Z,94980.13
2023-03-11T02:04:23.535Z,94980.91
2023-03-11T02:05:25.765Z,94980.50
2023-03-11T02:06:27.390Z,94979.78
2023-03-11T02:07:29.392Z,94982.06
2023-03-11T02:08:34.094Z,94988.19
2023-03-11T02:09:35.917Z,94995.09
2023-03-11T02:10:40.861Z,94990.53
2023-03-11T02:11:42.679Z,94998.97
2023-03-11T02:12:46.627Z,94998.97
2023-03-11T02:13:49.340Z,95002.81
2023-03-11T02:14:54.620Z,94996.66
2023-03-11T02:15:56.182Z,94998.19
2023-03-11T02:16:59.758Z,94992.03
2023-03-11T02:18:05.195Z,95000.50
2023-03-11T02:19:24.382Z,95003.94
2023-03-11T02:20:49.868Z,95005.06
2023-03-11T02:21:51.758Z,94996.63
2023-03-11T02:22:57.227Z,95003.56
2023-03-11T02:24:12.524Z,95000.88
2023-03-11T02:25:39.746Z,95000.50
2023-03-11T02:26:48.283Z,94994.72
2023-03-11T02:27:53.678Z,95002.00
2023-03-11T02:28:57.616Z,95010.41
2023-03-11T02:30:00.706Z,95013.09
2023-03-11T02:31:02.400Z,95019.63
2023-03-11T02:32:07.627Z,95015.00
2023-03-11T02:33:10.435Z,95015.75
2023-03-11T02:34:24.926Z,95018.03
2023-03-11T02:35:26.848Z,95019.56
2023-03-11T02:36:39.892Z,95022.19
2023-03-11T02:37:50.168Z,95021.44
2023-03-11T02:38:51.706Z,95021.78
2023-03-11T02:40:21.995Z,95031.78
2023-03-11T02:41:24.019Z,95029.47
2023-03-11T02:42:30.177Z,95036.00
2023-03-11T02:43:37.563Z,95035.66
2023-03-11T02:44:42.438Z,95032.59
2023-03-11T02:45:46.007Z,95031.84
2023-03-11T02:46:47.920Z,95033.44
2023-03-11T02:47:51.792Z,95029.22
2023-03-11T02:48:54.390Z,95034.97
2023-03-11T02:49:57.012Z,95033.44
2023-03-11T02:50:58.945Z,95036.53
2023-03-11T02:52:00.593Z,95036.13
2023-03-11T02:53:02.170Z,95035.00
2023-03-11T02:54:05.736Z,95031.94
2023-03-11T02:55:08.541Z,95035.78
2023-03-11T02:56:10.117Z,95041.88
2023-03-11T02:57:11.610Z,95035.00
2023-03-11T02:58:13.217Z,95031.53
2023-03-11T02:59:14.755Z,95034.22
2023-03-11T03:00:17.876Z,95034.22
2023-03-11T03:01:19.430Z,95023.47
2023-03-11T03:02:21.047Z,95022.72
2023-03-11T03:03:22.749Z,95018.88
2023-03-11T03:04:24.385Z,95010.44
2023-03-11T03:05:26.044Z,95014.25
2023-03-11T03:06:28.712Z,95017.31
2023-03-11T03:07:30.264Z,95017.69
2023-03-11T03:08:32.037Z,95023.47
2023-03-11T03:09:34.866Z,95019.97
2023-03-11T03:10:36.446Z,95024.53
2023-03-11T03:11:37.978Z,95022.59
2023-03-11T03:12:39.520Z,95023.38
2023-03-11T03:13:41.087Z,95027.94
2023-03-11T03:14:42.650Z,95030.97
2023-03-11T03:15:44.249Z,95028.69
2023-03-11T03:16:45.912Z,95027.53
2023-03-11T03:17:47.685Z,95030.22
2023-03-11T03:18:49.390Z,95032.53
2023-03-11T03:19:50.996Z,95036.38
2023-03-11T03:20:52.930Z,95044.81
2023-03-11T03:21:54.503Z,95044.81
2023-03-11T03:22:56.263Z,95039.47
2023-03-11T03:23:57.801Z,95036.75
2023-03-11T03:24:59.372Z,95038.66
2023-03-11T03:26:01.937Z,95035.97
2023-03-11T03:27:03.528Z,95029.78
2023-03-11T03:28:05.110Z,95034.38
2023-03-11T03:29:07.046Z,95038.56
2023-03-11T03:30:09.409Z,95040.50
2023-03-11T03:31:12.113Z,95043.97
2023-03-11T03:32:13.686Z,95033.19
2023-03-11T03:33:15.336Z,95043.91
2023-03-11T03:34:16.912Z,95037.78
2023-03-11T03:35:18.526Z,95043.13
2023-03-11T03:36:20.154Z,95046.97
2023-03-11T03:37:21.713Z,95045.41
2023-03-11T03:38:23.214Z,95042.72
2023-03-11T03:39:24.753Z,95046.19
2023-03-11T03:40:26.593Z,95050.00
2023-03-11T03:41:28.632Z,95053.06
2023-03-11T03:42:30.205Z,95053.81
2023-03-11T03:43:31.828Z,95051.50
2023-03-11T03:44:33.807Z,95056.81
2023-03-11T03:45:35.403Z,95057.94
2023-03-11T03:46:38.576Z,95056.00
2023-03-11T03:47:40.129Z,95052.94
2023-03-11T03:48:41.713Z,95053.69
2023-03-11T03:49:43.263Z,95050.63
2023-03-11T03:50:44.844Z,95050.56
2023-03-11T03:51:46.348Z,95066.63
2023-03-11T03:52:47.976Z,95062.00
2023-03-11T03:53:49.572Z,95056.66
2023-03-11T03:54:51.217Z,95054.38
2023-03-11T03:55:54.659Z,95050.56
2023-03-11T03:56:56.514Z,95047.50
2023-03-11T03:57:58.104Z,95050.22
2023-03-11T03:58:59.816Z,95038.34
2023-03-11T04:00:01.404Z,95042.19
2023-03-11T04:01:04.507Z,95038.78
2023-03-11T04:02:06.131Z,95041.47
2023-03-11T04:03:07.783Z,95038.44
2023-03-11T04:04:09.381Z,95041.09
2023-03-11T04:05:10.933Z,95048.38
2023-03-11T04:06:22.010Z,95040.34
2023-03-11T04:07:23.603Z,95039.22
2023-03-11T04:08:25.141Z,95043.78
2023-03-11T04:09:26.753Z,95041.13
2023-03-11T04:10:28.446Z,95046.88
2023-03-11T04:11:30.093Z,95041.53
2023-03-11T04:12:31.668Z,95053.00
2023-03-11T04:13:33.206Z,95051.47
2023-03-11T04:14:34.809Z,95048.00
2023-03-11T04:15:39.471Z,95052.25
2023-03-11T04:16:41.185Z,95057.59
2023-03-11T04:17:42.704Z,95049.56
2023-03-11T04:18:44.516Z,95052.25
2023-03-11T04:19:46.094Z,95055.34
2023-03-11T04:20:47.598Z,95054.94
2023-03-11T04:21:50.790Z,95060.28
2023-03-11T04:22:52.316Z,95054.53
2023-03-11T04:23:53.876Z,95062.19
2023-03-11T04:24:55.404Z,95056.81
2023-03-11T04:25:57.029Z,95062.19
2023-03-11T04:26:58.579Z,95053.78
2023-03-11T04:28:00.337Z,95061.41
2023-03-11T04:29:01.884Z,95055.28
2023-03-11T04:30:03.615Z,95060.63
2023-03-11T04:31:05.491Z,95068.31
2023-03-11T04:32:07.556Z,95069.88
2023-03-11T04:33:09.141Z,95067.56
2023-03-11T04:34:10.802Z,95066.78
2023-03-11T04:35:12.378Z,95066.06
2023-03-11T04:36:13.970Z,95065.28
2023-03-11T04:37:15.578Z,95062.59
2023-03-11T04:38:17.108Z,95059.94
2023-03-11T04:39:18.661Z,95057.66
2023-03-11T04:40:20.323Z,95057.25
2023-03-11T04:41:22.042Z,95059.16
2023-03-11T04:42:23.561Z,95053.06
2023-03-11T04:43:25.111Z,95059.59
2023-03-11T04:44:26.621Z,95053.50
2023-03-11T04:45:28.212Z,95057.38
2023-03-11T04:46:29.815Z,95058.16
2023-03-11T04:47:31.667Z,95063.91
2023-03-11T04:48:33.200Z,95058.53
2023-03-11T04:49:34.839Z,95058.56
2023-03-11T04:50:36.480Z,95056.28
2023-03-11T04:51:38.713Z,95058.22
2023-03-11T04:52:40.286Z,95063.22
2023-03-11T04:53:42.002Z,95062.50
2023-03-11T04:54:43.511Z,95064.84
2023-03-11T04:55:45.078Z,95067.16
2023-03-11T04:56:50.446Z,95065.63
2023-03-11T04:57:52.044Z,95074.47
2023-03-11T04:58:53.598Z,95069.50
2023-03-11T04:59:55.123Z,95073.34
2023-03-11T05:00:56.818Z,95072.56
2023-03-11T05:01:58.539Z,95073.34
2023-03-11T05:03:00.183Z,95077.97
2023-03-11T05:04:01.788Z,95077.19
2023-03-11T05:05:03.664Z,95064.16
2023-03-11T05:06:05.694Z,95070.31
2023-03-11T05:07:07.252Z,95064.19
2023-03-11T05:08:08.878Z,95065.72
2023-03-11T05:09:10.429Z,95060.75
2023-03-11T05:10:12.564Z,95064.97
2023-03-11T05:11:14.208Z,95064.97
2023-03-11T05:12:15.782Z,95069.59
2023-03-11T05:13:17.336Z,95068.03
2023-03-11T05:14:18.964Z,95066.13
2023-03-11T05:15:20.745Z,95068.81
2023-03-11T05:16:22.497Z,95066.88
2023-03-11T05:17:24.917Z,95068.03
2023-03-11T05:18:26.723Z,95064.59
2023-03-11T05:19:31.172Z,95069.56
2023-03-11T05:20:32.814Z,95072.25
2023-03-11T05:21:34.461Z,95071.13
2023-03-11T05:22:36.647Z,95072.63
2023-03-11T05:23:38.263Z,95077.63
2023-03-11T05:24:40.040Z,95068.78
2023-03-11T05:25:41.612Z,95078.00
2023-03-11T05:26:43.148Z,95070.34
2023-03-11T05:27:44.815Z,95070.72
2023-03-11T05:28:46.453Z,95074.16
2023-03-11T05:29:48.078Z,95078.38
2023-03-11T05:30:50.529Z,95074.94
2023-03-11T05:31:52.424Z,95078.41
2023-03-11T05:32:54.563Z,95081.47
2023-03-11T05:33:56.905Z,95078.00
2023-03-11T05:34:58.505Z,95078.00
2023-03-11T05:36:08.479Z,95079.53
2023-03-11T05:37:10.048Z,95077.22
2023-03-11T05:38:11.612Z,95080.31
2023-03-11T05:39:13.552Z,95072.63
2023-03-11T05:40:15.970Z,95077.22
2023-03-11T05:41:18.921Z,95078.75
2023-03-11T05:42:21.577Z,95071.13
2023-03-11T05:43:23.513Z,95072.66
2023-03-11T05:44:25.143Z,95068.78
2023-03-11T05:45:26.693Z,95075.66
2023-03-11T05:46:28.344Z,95081.03
2023-03-11T05:47:29.908Z,95067.59
2023-03-11T05:48:31.544Z,95064.50
2023-03-11T05:49:33.186Z,95068.66
2023-03-11T05:50:34.774Z,95064.06
2023-03-11T05:51:37.603Z,95061.75
2023-03-11T05:52:39.237Z,95071.72
2023-03-11T05:53:48.321Z,95069.41
2023-03-11T05:54:51.631Z,95062.50
2023-03-11T05:56:00.774Z,95064.78
2023-03-11T05:57:02.873Z,95071.66
2023-03-11T05:58:04.483Z,95076.25
2023-03-11T05:59:06.087Z,95081.22
2023-03-11T06:00:12.403Z,95083.91
2023-03-11T06:01:16.798Z,95085.09
2023-03-11T06:02:18.361Z,95087.44
2023-03-11T06:03:20.020Z,95085.13
2023-03-11T06:04:21.961Z,95090.13
2023-03-11T06:05:23.617Z,95093.22
2023-03-11T06:06:25.199Z,95095.94
2023-03-11T06:07:26.855Z,95092.09
2023-03-11T06:08:28.448Z,95090.19
2023-03-11T06:09:29.971Z,95100.97
2023-03-11T06:10:31.508Z,95095.59
2023-03-11T06:11:33.175Z,95094.44
2023-03-11T06:12:35.354Z,95090.22
2023-03-11T06:13:37.742Z,95088.28
2023-03-11T06:14:39.328Z,95093.25
2023-03-11T06:15:40.994Z,95088.25
2023-03-11T06:16:42.805Z,95091.72
2023-03-11T06:17:44.455Z,95090.53
2023-03-11T06:18:46.304Z,95086.31
2023-03-11T06:19:47.833Z,95093.19
2023-03-11T06:20:49.429Z,95094.00
2023-03-11T06:21:51.145Z,95095.56
2023-03-11T06:22:52.908Z,95107.06
2023-03-11T06:23:54.708Z,95098.66
2023-03-11T06:24:56.294Z,95099.47
2023-03-11T06:26:04.737Z,95100.28
2023-03-11T06:27:06.375Z,95101.03
2023-03-11T06:28:08.146Z,95104.88
2023-03-11T06:29:14.197Z,95097.97
2023-03-11T06:30:15.893Z,95102.59
2023-03-11T06:31:19.535Z,95104.88
2023-03-11T06:32:21.130Z,95107.94
2023-03-11T06:33:24.068Z,95101.03
2023-03-11T06:34:25.930Z,95099.50
2023-03-11T06:35:27.783Z,95101.78
2023-03-11T06:36:29.450Z,95101.78
2023-03-11T06:37:31.114Z,95102.16
2023-03-11T06:38:36.273Z,95107.91
2023-03-11T06:39:38.931Z,95101.75
2023-03-11T06:40:40.521Z,95101.69
2023-03-11T06:41:42.638Z,95104.75
2023-03-11T06:42:47.611Z,95104.72
2023-03-11T06:43:49.197Z,95098.59
2023-03-11T06:44:50.739Z,95093.56
2023-03-11T06:45:52.288Z,95093.16
2023-03-11T06:46:53.863Z,95093.13
2023-03-11T06:47:55.460Z,95088.16
2023-03-11T06:48:57.499Z,95088.16
2023-03-11T06:49:59.088Z,95086.22
2023-03-11T06:51:01.460Z,95090.06
2023-03-11T06:52:03.038Z,95086.22
2023-03-11T06:53:07.688Z,95080.91
2023-03-11T06:54:10.454Z,95083.22
2023-03-11T06:55:12.001Z,95093.25
2023-03-11T06:56:14.544Z,95091.72
2023-03-11T06:57:16.691Z,95091.03
2023-03-11T06:58:18.226Z,95092.97
2023-03-11T06:59:19.782Z,95095.66
2023-03-11T07:00:21.577Z,95085.69
2023-03-11T07:01:25.326Z,95089.13
2023-03-11T07:02:26.909Z,95094.13
2023-03-11T07:03:29.188Z,95094.13
2023-03-11T07:04:32.140Z,95089.91
2023-03-11T07:05:33.648Z,95087.97
2023-03-11T07:06:35.241Z,95091.44
2023-03-11T07:07:36.772Z,95088.34
2023-03-11T07:08:38.378Z,95087.59
2023-03-11T07:09:39.898Z,95089.50
2023-03-11T07:10:41.410Z,95081.84
2023-03-11T07:11:42.968Z,95078.41
2023-03-11T07:12:44.554Z,95077.63
2023-03-11T07:13:47.056Z,95078.34
2023-03-11T07:14:48.603Z,95084.88
2023-03-11T07:15:50.153Z,95080.28
2023-03-11T07:16:51.770Z,95078.75
2023-03-11T07:17:53.360Z,95076.47
2023-03-11T07:18:58.426Z,95078.78
2023-03-11T07:20:00.386Z,95081.06
2023-03-11T07:21:03.901Z,95072.63
2023-03-11T07:22:05.444Z,95082.63
2023-03-11T07:23:06.974Z,95073.41
2023-03-11T07:24:11.398Z,95068.78
2023-03-11T07:25:12.930Z,95072.25
2023-03-11T07:26:15.473Z,95075.69
2023-03-11T07:27:17.724Z,95074.94
2023-03-11T07:28:19.385Z,95078.00
2023-03-11T07:29:21.174Z,95074.88
2023-03-11T07:30:22.772Z,95071.81
2023-03-11T07:31:28.139Z,95061.81
2023-03-11T07:32:29.760Z,95052.53
2023-03-11T07:33:34.108Z,95056.31
2023-03-11T07:34:35.868Z,95058.56
2023-03-11T07:35:37.431Z,95058.50
2023-03-11T07:36:42.702Z,95057.25
2023-03-11T07:37:44.377Z,95059.09
2023-03-11T07:38:46.442Z,95061.25
2023-03-11T07:39:47.980Z,95057.25
2023-03-11T07:40:59.081Z,95051.47
2023-03-11T07:42:00.641Z,95047.19
2023-03-11T07:43:02.324Z,95043.34
2023-03-11T07:44:04.774Z,95039.34
2023-03-11T07:45:06.950Z,95043.75
2023-03-11T07:46:16.600Z,95042.00
2023-03-11T07:47:18.343Z,95036.84
2023-03-11T07:48:19.952Z,95032.34
2023-03-11T07:49:21.498Z,95029.06
2023-03-11T07:50:23.140Z,95033.41
2023-03-11T07:51:27.302Z,95027.88
2023-03-11T07:52:32.818Z,95029.69
2023-03-11T07:53:35.253Z,95028.63
2023-03-11T07:54:36.843Z,95022.69
2023-03-11T07:55:38.382Z,95020.50
2023-03-11T07:56:40.028Z,95024.88
2023-03-11T07:57:42.750Z,95021.94
2023-03-11T07:58:45.842Z,95016.69
2023-03-11T07:59:47.534Z,95014.88
2023-03-11T08:00:49.036Z,95013.03
2023-03-11T08:01:50.749Z,95012.88
2023-03-11T08:02:52.376Z,95004.41
2023-03-11T08:03:58.822Z,95008.59
2023-03-11T08:05:01.569Z,95003.50
2023-03-11T08:06:11.366Z,95006.50
2023-03-11T08:07:12.961Z,95007.19
2023-03-11T08:08:14.593Z,95006.88
2023-03-11T08:09:16.193Z,95009.84
2023-03-11T08:10:17.884Z,95003.41
2023-03-11T08:11:20.903Z,95007.00
2023-03-11T08:12:22.427Z,95004.94
2023-03-11T08:13:23.978Z,95004.09
2023-03-11T08:14:25.650Z,95000.03
2023-03-11T08:15:27.285Z,95002.97
2023-03-11T08:16:29.444Z,95001.47
2023-03-11T08:17:31.033Z,95002.88
2023-03-11T08:18:33.172Z,94996.38
2023-03-11T08:19:34.779Z,94993.47
2023-03-11T08:20:39.320Z,95001.72
2023-03-11T08:21:40.924Z,94995.00
2023-03-11T08:22:52.069Z,94988.63
2023-03-11T08:24:01.384Z,94991.16
2023-03-11T08:25:03.328Z,94980.44
2023-03-11T08:26:06.193Z,94987.50
2023-03-11T08:27:09.710Z,94983.63
2023-03-11T08:28:11.281Z,94976.25
2023-03-11T08:29:12.875Z,94981.28
2023-03-11T08:30:14.907Z,94985.88
2023-03-11T08:31:19.609Z,94976.66
2023-03-11T08:32:21.303Z,94977.19
2023-03-11T08:33:22.834Z,94975.56
2023-03-11T08:34:24.441Z,94978.84
2023-03-11T08:35:26.934Z,94973.28
2023-03-11T08:36:29.416Z,94978.94
2023-03-11T08:37:31.625Z,94966.66
2023-03-11T08:38:33.191Z,94968.16
2023-03-11T08:39:34.787Z,94971.94
2023-03-11T08:40:36.312Z,94973.47
2023-03-11T08:41:37.958Z,94976.59
2023-03-11T08:42:39.517Z,94965.13
2023-03-11T08:43:42.377Z,94966.66
2023-03-11T08:44:44.330Z,94961.25
2023-03-11T08:45:45.858Z,94958.50
2023-03-11T08:46:47.739Z,94964.66
2023-03-11T08:47:49.329Z,94958.09
2023-03-11T08:48:50.862Z,94954.19
2023-03-11T08:49:52.405Z,94950.28
2023-03-11T08:50:54.869Z,94959.03
2023-03-11T08:51:56.593Z,94954.63
2023-03-11T08:53:00.492Z,94952.56
2023-03-11T08:54:03.414Z,94953.78
2023-03-11T08:55:05.657Z,94953.56
2023-03-11T08:56:08.118Z,94953.22
2023-03-11T08:57:09.936Z,94947.47
2023-03-11T08:58:11.946Z,94952.75
2023-03-11T08:59:14.312Z,94956.72
2023-03-11T09:00:16.439Z,94950.69
2023-03-11T09:01:20.254Z,94950.34
2023-03-11T09:02:21.833Z,94946.34
2023-03-11T09:03:23.387Z,94947.31
2023-03-11T09:04:24.980Z,94946.06
2023-03-11T09:05:26.632Z,94946.56
2023-03-11T09:06:30.409Z,94941.31
2023-03-11T09:07:32.108Z,94943.53
2023-03-11T09:08:34.003Z,94936.66
2023-03-11T09:09:35.555Z,94933.56
2023-03-11T09:10:37.113Z,94939.59
2023-03-11T09:11:39.284Z,94941.00
2023-03-11T09:12:40.973Z,94932.75
2023-03-11T09:13:43.593Z,94932.88
2023-03-11T09:14:45.272Z,94931.78
2023-03-11T09:15:48.506Z,94930.56
2023-03-11T09:16:50.157Z,94924.28
2023-03-11T09:17:51.780Z,94925.63
2023-03-11T09:18:53.444Z,94926.44
2023-03-11T09:19:55.111Z,94924.53
2023-03-11T09:20:58.484Z,94914.03
2023-03-11T09:22:01.167Z,94920.88
2023-03-11T09:23:02.735Z,94923.78
2023-03-11T09:24:05.057Z,94912.13
2023-03-11T09:25:07.468Z,94914.19
2023-03-11T09:26:08.993Z,94915.41
2023-03-11T09:27:11.122Z,94917.28
2023-03-11T09:28:12.681Z,94916.28
2023-03-11T09:29:14.218Z,94915.25
2023-03-11T09:30:15.995Z,94913.56
2023-03-11T09:31:18.302Z,94912.25
2023-03-11T09:32:19.934Z,94911.75
2023-03-11T09:33:21.636Z,94906.81
2023-03-11T09:34:23.924Z,94898.00
2023-03-11T09:35:25.730Z,94903.81
2023-03-11T09:36:27.258Z,94907.28
2023-03-11T09:37:30.290Z,94897.47
2023-03-11T09:38:31.873Z,94902.91
2023-03-11T09:39:33.605Z,94898.00
2023-03-11T09:40:56.602Z,94898.66
2023-03-11T09:42:03.570Z,94902.25
2023-03-11T09:43:26.943Z,94904.19
2023-03-11T09:44:37.635Z,94905.63
2023-03-11T09:45:47.075Z,94908.81
2023-03-11T09:47:04.220Z,94903.22
2023-03-11T09:48:11.588Z,94905.03
2023-03-11T09:49:51.445Z,94911.06
2023-03-11T09:51:10.223Z,94902.41
2023-03-11T09:52:19.534Z,94895.97
2023-03-11T09:53:27.472Z,94895.13
2023-03-11T09:54:36.712Z,94894.63
2023-03-11T09:55:40.956Z,94891.75
2023-03-11T09:56:44.594Z,94891.06
2023-03-11T09:57:46.880Z,94897.66
2023-03-11T09:58:52.520Z,94899.84
2023-03-11T09:59:55.025Z,94893.22
2023-03-11T10:00:56.693Z,94895.06
2023-03-11T10:02:00.229Z,94900.81
2023-03-11T10:03:03.322Z,94889.66
2023-03-11T10:04:13.183Z,94896.84
2023-03-11T10:05:25.657Z,94902.97
2023-03-11T10:06:30.117Z,94896.16
2023-03-11T10:07:39.434Z,94897.41
2023-03-11T10:09:21.426Z,94904.56
2023-03-11T10:10:24.401Z,94907.94
2023-03-11T10:12:03.143Z,94912.53
2023-03-11T10:13:23.599Z,94910.56
2023-03-11T10:14:40.146Z,94910.19
2023-03-11T10:16:03.859Z,94916.44
2023-03-11T10:17:37.041Z,94918.38
2023-03-11T10:19:21.430Z,94914.91
2023-03-11T10:20:34.609Z,94913.97
2023-03-11T10:21:47.820Z,94926.59
2023-03-11T10:22:59.319Z,94917.25
2023-03-11T10:24:16.650Z,94923.41
2023-03-11T10:25:48.595Z,94922.72
2023-03-11T10:26:57.858Z,94918.94
2023-03-11T10:28:05.700Z,94926.56
2023-03-11T10:29:17.155Z,94930.09
2023-03-11T10:30:25.806Z,94923.41
2023-03-11T10:32:02.013Z,94921.16
2023-03-11T10:33:38.302Z,94924.19
2023-03-11T10:34:46.441Z,94927.50
2023-03-11T10:35:53.507Z,94929.69
2023-03-11T10:37:10.288Z,94935.28
2023-03-11T10:38:20.363Z,94938.44
2023-03-11T10:39:22.967Z,94932.56
2023-03-11T10:40:35.903Z,94934.97
2023-03-11T10:41:49.556Z,94930.72
2023-03-11T10:42:53.840Z,94928.13
2023-03-11T10:44:12.671Z,94929.63
2023-03-11T10:45:15.367Z,94927.28
2023-03-11T10:46:25.377Z,94931.00
2023-03-11T10:47:27.355Z,94930.53
2023-03-11T10:48:29.377Z,94938.53
2023-03-11T10:49:31.485Z,94930.63
2023-03-11T10:50:36.708Z,94934.34
2023-03-11T10:51:38.824Z,94939.22
2023-03-11T10:53:15.017Z,94920.41
2023-03-11T10:54:39.632Z,94926.19
2023-03-11T10:56:00.167Z,94933.34
2023-03-11T10:57:18.899Z,94936.53
2023-03-11T10:58:23.829Z,94938.88
2023-03-11T10:59:29.743Z,94933.47
2023-03-11T11:00:31.973Z,94925.63
2023-03-11T11:01:33.645Z,94935.06
2023-03-11T11:02:43.569Z,94940.59
2023-03-11T11:03:49.371Z,94942.06
2023-03-11T11:05:25.063Z,94940.88
2023-03-11T11:06:34.304Z,94944.28
2023-03-11T11:07:41.079Z,94936.53
2023-03-11T11:08:42.676Z,94932.50
2023-03-11T11:09:44.194Z,94919.34
2023-03-11T11:10:57.788Z,94932.31
2023-03-11T11:12:11.957Z,94927.72
2023-03-11T11:13:13.441Z,94920.72
2023-03-11T11:14:14.983Z,94920.72
2023-03-11T11:15:41.229Z,94923.28
2023-03-11T11:16:42.873Z,94922.13
2023-03-11T11:17:47.728Z,94905.13
2023-03-11T11:19:09.179Z,94908.44
2023-03-11T11:20:17.854Z,94908.63
2023-03-11T11:21:34.111Z,94911.59
2023-03-11T11:22:35.656Z,94908.22
2023-03-11T11:23:48.015Z,94909.88
2023-03-11T11:24:51.683Z,94907.41
2023-03-11T11:25:59.946Z,94898.56
2023-03-11T11:27:04.434Z,94907.19
2023-03-11T11:28:18.894Z,94901.69
2023-03-11T11:29:20.762Z,94899.31
2023-03-11T11:30:23.234Z,94898.13
2023-03-11T11:31:26.261Z,94888.47
2023-03-11T11:32:29.183Z,94885.34
2023-03-11T11:33:38.709Z,94891.63
2023-03-11T11:34:40.308Z,94885.44
2023-03-11T11:35:51.926Z,94885.44
2023-03-11T11:36:57.163Z,94887.78
2023-03-11T11:38:04.331Z,94885.53
2023-03-11T11:39:16.610Z,94879.34
2023-03-11T11:40:31.091Z,94879.13
2023-03-11T11:41:35.455Z,94880.84
2023-03-11T11:42:39.259Z,94884.59
2023-03-11T11:43:55.491Z,94880.28
2023-03-11T11:45:05.649Z,94877.50
2023-03-11T11:46:15.654Z,94866.75
2023-03-11T11:47:26.269Z,94864.44
2023-03-11T11:48:33.989Z,94857.75
2023-03-11T11:49:37.415Z,94862.91
2023-03-11T11:50:59.014Z,94864.81
2023-03-11T11:52:03.176Z,94861.25
2023-03-11T11:53:13.405Z,94862.38
2023-03-11T11:54:24.262Z,94853.63
2023-03-11T11:55:28.995Z,94861.50
2023-03-11T11:56:30.670Z,94857.13
2023-03-11T11:57:32.635Z,94854.66
2023-03-11T11:58:34.855Z,94861.59
2023-03-11T11:59:36.435Z,94850.34
2023-03-11T12:00:53.345Z,94853.47
2023-03-11T12:02:05.107Z,94852.28
2023-03-11T12:03:10.468Z,94856.88
2023-03-11T12:04:27.052Z,94859.22
2023-03-11T12:05:50.750Z,94863.88
2023-03-11T12:07:18.947Z,94879.38
2023-03-11T12:08:45.740Z,94879.44
2023-03-11T12:09:53.092Z,94883.28
2023-03-11T12:11:06.338Z,94875.81
2023-03-11T12:12:37.018Z,94870.66
2023-03-11T12:13:49.609Z,94866.75
2023-03-11T12:15:12.299Z,94869.91
2023-03-11T12:16:41.618Z,94860.66
2023-03-11T12:17:46.764Z,94858.03
2023-03-11T12:19:08.504Z,94865.16
2023-03-11T12:20:28.089Z,94859.31
2023-03-11T12:21:37.479Z,94852.97
2023-03-11T12:23:19.097Z,94854.72
2023-03-11T12:24:32.800Z,94861.25
2023-03-11T12:25:52.198Z,94847.72
2023-03-11T12:27:00.045Z,94849.56
2023-03-11T12:28:16.832Z,94846.09
2023-03-11T12:29:29.763Z,94845.25
2023-03-11T12:30:38.338Z,94840.78
2023-03-11T12:31:41.948Z,94842.72
2023-03-11T12:33:25.169Z,94843.06
2023-03-11T12:34:28.354Z,94836.88
2023-03-11T12:35:33.344Z,94841.28
2023-03-11T12:36:39.312Z,94841.38
2023-03-11T12:37:40.932Z,94842.28
2023-03-11T12:38:47.549Z,94848.22
2023-03-11T12:39:49.096Z,94845.16